createdAt,value
2023-04-01T00:01:09.944Z,10.66
2023-04-01T00:04:12.803Z,10.62
2023-04-01T00:07:15.631Z,10.66
2023-04-01T00:10:19.027Z,10.72
2023-04-01T00:13:22.469Z,10.75
2023-04-01T00:16:26.847Z,10.75
2023-04-01T00:19:30.527Z,10.79
2023-04-01T00:22:33.647Z,10.74
2023-04-01T00:25:36.360Z,10.66
2023-04-01T00:28:39.042Z,10.65
2023-04-01T00:31:43.299Z,10.73
2023-04-01T00:34:46.604Z,10.62
2023-04-01T00:37:49.449Z,10.67
2023-04-01T00:40:52.235Z,10.78
2023-04-01T00:43:55.037Z,10.74
2023-04-01T00:46:59.428Z,10.76
2023-04-01T00:50:02.247Z,10.74
2023-04-01T00:53:05.648Z,10.71
2023-04-01T00:56:14.262Z,10.77
2023-04-01T00:59:22.041Z,10.86
2023-04-01T01:02:26.774Z,10.93
2023-04-01T01:05:48.786Z,10.90
2023-04-01T01:09:08.930Z,10.90
2023-04-01T01:12:17.886Z,10.84
2023-04-01T01:15:26.799Z,10.88
2023-04-01T01:18:38.187Z,10.84
2023-04-01T01:22:09.975Z,10.77
2023-04-01T01:25:23.404Z,10.71
2023-04-01T01:28:39.548Z,10.76
2023-04-01T01:31:52.682Z,10.79
2023-04-01T01:35:07.178Z,10.73
2023-04-01T01:38:14.918Z,10.83
2023-04-01T01:41:20.289Z,10.88
2023-04-01T01:44:24.396Z,10.93
2023-04-01T01:47:29.663Z,10.84
2023-04-01T01:50:35.097Z,10.66
2023-04-01T01:53:38.697Z,10.72
2023-04-01T01:56:43.621Z,10.69
2023-04-01T01:59:49.555Z,10.61
2023-04-01T02:02:53.158Z,10.56
2023-04-01T02:05:59.364Z,10.43
2023-04-01T02:09:05.698Z,10.43
2023-04-01T02:12:10.547Z,10.57
2023-04-01T02:15:16.760Z,10.49
2023-04-01T02:18:21.598Z,10.49
2023-04-01T02:21:30.506Z,10.51
2023-04-01T02:24:37.272Z,10.57
2023-04-01T02:27:41.274Z,10.55
2023-04-01T02:30:46.185Z,10.49
2023-04-01T02:33:50.090Z,10.46
2023-04-01T02:36:55.755Z,10.54
2023-04-01T02:40:02.087Z,10.46
2023-04-01T02:43:04.903Z,10.42
2023-04-01T02:46:09.105Z,10.42
2023-04-01T02:49:12.355Z,10.50
2023-04-01T02:52:16.648Z,10.46
2023-04-01T02:55:19.351Z,10.31
2023-04-01T02:58:22.020Z,10.37
2023-04-01T03:01:25.005Z,10.38
2023-04-01T03:04:27.810Z,10.45
2023-04-01T03:07:31.941Z,10.48
2023-04-01T03:10:34.571Z,10.40
2023-04-01T03:13:37.308Z,10.39
2023-04-01T03:16:40.052Z,10.53
2023-04-01T03:19:42.781Z,10.57
2023-04-01T03:22:47.166Z,10.46
2023-04-01T03:25:50.080Z,10.45
2023-04-01T03:28:52.731Z,10.43
2023-04-01T03:31:55.501Z,10.51
2023-04-01T03:34:58.184Z,10.58
2023-04-01T03:38:02.313Z,10.58
2023-04-01T03:41:05.374Z,10.51
2023-04-01T03:44:08.176Z,10.49
2023-04-01T03:47:11.426Z,10.47
2023-04-01T03:50:14.275Z,10.40
2023-04-01T03:53:18.545Z,10.29
2023-04-01T03:56:21.284Z,10.10
2023-04-01T03:59:24.466Z,10.16
2023-04-01T04:02:27.222Z,10.26
2023-04-01T04:05:30.021Z,10.24
2023-04-01T04:08:34.069Z,10.23
2023-04-01T04:11:36.902Z,10.24
2023-04-01T04:14:39.834Z,10.19
2023-04-01T04:17:42.794Z,10.15
2023-04-01T04:20:48.084Z,10.18
2023-04-01T04:23:52.907Z,10.25
2023-04-01T04:26:55.669Z,10.20
2023-04-01T04:29:58.344Z,10.30
2023-04-01T04:33:01.080Z,10.17
2023-04-01T04:36:05.713Z,10.18
2023-04-01T04:39:10.225Z,10.14
2023-04-01T04:42:12.911Z,10.10
2023-04-01T04:45:15.997Z,10.09
2023-04-01T04:48:21.236Z,10.12
2023-04-01T04:51:24.270Z,10.09
2023-04-01T04:54:28.529Z,10.13
2023-04-01T04:57:31.385Z,10.09
2023-04-01T05:00:34.282Z,10.16
2023-04-01T05:03:37.095Z,10.04
2023-04-01T05:06:39.787Z,9.93
2023-04-01T05:09:44.223Z,10.04
2023-04-01T05:12:46.874Z,10.08
2023-04-01T05:15:49.606Z,10.05
2023-04-01T05:18:52.374Z,10.13
2023-04-01T05:21:55.088Z,9.97
2023-04-01T05:24:59.354Z,9.91
2023-04-01T05:28:02.251Z,10.04
2023-04-01T05:31:06.327Z,9.99
2023-04-01T05:34:09.062Z,9.94
2023-04-01T05:37:11.988Z,9.96
2023-04-01T05:40:16.335Z,9.98
2023-04-01T05:43:19.015Z,10.04
2023-04-01T05:46:21.995Z,10.30
2023-04-01T05:49:26.918Z,10.40
2023-04-01T05:52:30.622Z,10.39
2023-04-01T05:55:36.877Z,10.44
2023-04-01T05:58:41.132Z,10.36
2023-04-01T06:01:44.048Z,10.53
2023-04-01T06:04:47.224Z,10.57
2023-04-01T06:07:50.412Z,10.62
2023-04-01T06:11:06.292Z,10.67
2023-04-01T06:14:29.341Z,10.71
2023-04-01T06:17:44.897Z,10.72
2023-04-01T06:20:59.294Z,10.78
2023-04-01T06:24:14.005Z,10.88
2023-04-01T06:27:29.214Z,10.89
2023-04-01T06:30:40.562Z,10.90
2023-04-01T06:33:54.509Z,11.01
2023-04-01T06:37:17.176Z,11.02
2023-04-01T06:40:34.234Z,10.96
2023-04-01T06:43:50.521Z,10.98
2023-04-01T06:47:00.123Z,10.90
2023-04-01T06:50:14.045Z,10.93
2023-04-01T06:53:23.361Z,10.92
2023-04-01T06:56:29.851Z,11.06
2023-04-01T06:59:35.692Z,11.01
2023-04-01T07:02:43.712Z,11.03
2023-04-01T07:05:46.767Z,11.07
2023-04-01T07:08:51.601Z,11.15
2023-04-01T07:11:58.799Z,11.19
2023-04-01T07:15:13.647Z,11.22
2023-04-01T07:18:21.348Z,11.19
2023-04-01T07:21:31.895Z,11.04
2023-04-01T07:24:38.036Z,11.05
2023-04-01T07:27:40.958Z,11.02
2023-04-01T07:30:56.483Z,11.15
2023-04-01T07:34:09.082Z,11.18
2023-04-01T07:37:16.204Z,11.13
2023-04-01T07:40:30.350Z,11.10
2023-04-01T07:43:58.224Z,11.13
2023-04-01T07:47:19.612Z,11.09
2023-04-01T07:50:29.544Z,11.13
2023-04-01T07:53:39.048Z,11.15
2023-04-01T07:56:52.070Z,11.19
2023-04-01T08:00:03.141Z,11.26
2023-04-01T08:03:19.254Z,11.21
2023-04-01T08:06:29.298Z,11.25
2023-04-01T08:09:40.913Z,11.25
2023-04-01T08:12:54.631Z,11.35
2023-04-01T08:28:32.742Z,11.54
2023-04-01T08:31:39.681Z,11.52
2023-04-01T08:34:45.939Z,11.49
2023-04-01T08:37:52.120Z,11.44
2023-04-01T08:41:00.745Z,11.42
2023-04-01T08:44:36.618Z,11.36
2023-04-01T08:48:30.205Z,11.08
2023-04-01T08:52:16.032Z,11.10
2023-04-01T08:55:33.512Z,11.04
2023-04-01T08:59:01.408Z,11.02
2023-04-01T09:02:28.055Z,10.98
2023-04-01T09:05:59.511Z,10.93
2023-04-01T09:09:42.646Z,10.97
2023-04-01T09:13:01.879Z,11.02
2023-04-01T09:16:34.677Z,11.05
2023-04-01T09:20:05.737Z,11.16
2023-04-01T09:23:40.903Z,11.30
2023-04-01T09:27:07.130Z,11.42
2023-04-01T09:30:35.959Z,11.60
2023-04-01T09:34:21.986Z,11.62
2023-04-01T09:37:36.569Z,11.59
2023-04-01T09:40:49.300Z,11.59
2023-04-01T09:44:04.716Z,11.49
2023-04-01T09:47:27.850Z,11.49
2023-04-01T09:50:44.438Z,11.48
2023-04-01T09:54:02.400Z,11.46
2023-04-01T09:57:29.752Z,11.42
2023-04-01T10:00:50.481Z,11.41
2023-04-01T10:04:19.885Z,11.54
2023-04-01T10:08:04.224Z,11.56
2023-04-01T10:11:24.968Z,11.56
2023-04-01T10:14:50.271Z,11.64
2023-04-01T10:18:24.722Z,11.76
2023-04-01T10:21:59.407Z,11.91
2023-04-01T10:25:35.210Z,12.01
2023-04-01T10:29:05.207Z,12.07
2023-04-01T10:32:39.101Z,12.02
2023-04-01T10:36:11.783Z,11.94
2023-04-01T10:39:52.479Z,11.91
2023-04-01T10:43:38.507Z,11.80
2023-04-01T10:47:19.274Z,11.77
2023-04-01T10:50:58.113Z,11.80
2023-04-01T10:54:19.777Z,11.75
2023-04-01T10:58:16.469Z,11.84
2023-04-01T11:01:44.192Z,11.92
2023-04-01T11:05:28.864Z,12.02
2023-04-01T11:09:11.716Z,12.11
2023-04-01T11:12:50.728Z,12.09
2023-04-01T11:16:20.542Z,12.28
2023-04-01T11:19:55.341Z,12.37
2023-04-01T11:23:37.928Z,12.45
2023-04-01T11:26:54.922Z,12.61
2023-04-01T11:30:20.397Z,12.63
2023-04-01T11:33:27.766Z,12.65
2023-04-01T11:36:46.665Z,12.56
2023-04-01T11:40:03.871Z,12.56
2023-04-01T11:43:32.235Z,12.62
2023-04-01T11:46:43.170Z,12.65
2023-04-01T11:50:02.047Z,12.68
2023-04-01T11:53:24.397Z,12.66
2023-04-01T11:56:43.728Z,12.62
2023-04-01T12:00:23.553Z,12.49
2023-04-01T12:04:12.404Z,12.42
2023-04-01T12:07:24.092Z,12.43
2023-04-01T12:10:33.520Z,12.49
2023-04-01T12:13:47.757Z,12.52
2023-04-01T12:17:01.554Z,12.44
2023-04-01T12:20:29.106Z,12.46
2023-04-01T12:23:48.765Z,12.44
2023-04-01T12:27:17.006Z,12.53
2023-04-01T12:30:35.116Z,12.63
2023-04-01T12:34:22.525Z,12.58
2023-04-01T12:37:32.502Z,12.65
2023-04-01T12:40:50.410Z,12.66
2023-04-01T12:44:36.405Z,12.73
2023-04-01T12:48:05.615Z,12.69
2023-04-01T12:51:27.876Z,12.70
2023-04-01T12:54:54.346Z,12.66
2023-04-01T12:58:27.880Z,12.63
2023-04-01T13:02:02.879Z,12.68
2023-04-01T13:05:41.388Z,12.73
2023-04-01T13:08:54.968Z,12.69
2023-04-01T13:12:25.980Z,12.63
2023-04-01T13:15:38.821Z,12.52
2023-04-01T13:18:54.871Z,12.40
2023-04-01T13:22:06.861Z,12.39
2023-04-01T13:25:23.865Z,12.46
2023-04-01T13:28:31.400Z,12.54
2023-04-01T13:31:52.636Z,12.59
2023-04-01T13:35:12.804Z,12.61
2023-04-01T13:38:41.573Z,12.62
2023-04-01T13:41:59.776Z,12.64
2023-04-01T13:45:07.356Z,12.66
2023-04-01T13:48:30.032Z,12.62
2023-04-01T13:51:57.328Z,12.62
2023-04-01T13:55:23.158Z,12.55
2023-04-01T13:58:50.986Z,12.44
2023-04-01T14:02:16.055Z,12.45
2023-04-01T14:06:05.396Z,12.47
2023-04-01T14:09:31.892Z,12.52
2023-04-01T14:12:42.328Z,12.50
2023-04-01T14:15:59.150Z,12.48
2023-04-01T14:19:16.540Z,12.47
2023-04-01T14:22:28.111Z,12.44
2023-04-01T14:25:49.499Z,12.43
2023-04-01T14:29:03.472Z,12.31
2023-04-01T14:32:18.892Z,12.19
2023-04-01T14:35:37.775Z,12.09
2023-04-01T14:38:49.805Z,12.03
2023-04-01T14:42:12.182Z,12.04
2023-04-01T14:45:47.462Z,11.97
2023-04-01T14:48:59.168Z,11.91
2023-04-01T14:52:11.409Z,11.98
2023-04-01T14:55:27.489Z,12.03
2023-04-01T14:58:44.553Z,12.12
2023-04-01T15:01:58.354Z,12.18
2023-04-01T15:05:16.178Z,12.24
2023-04-01T15:08:25.180Z,12.24
2023-04-01T15:11:43.447Z,12.32
2023-04-01T15:14:57.710Z,12.25
2023-04-01T15:18:11.976Z,12.30
2023-04-01T15:21:29.122Z,12.30
2023-04-01T15:24:47.811Z,12.33
2023-04-01T15:27:59.384Z,12.36
2023-04-01T15:31:09.634Z,12.36
2023-04-01T15:34:28.289Z,12.36
2023-04-01T15:37:41.123Z,12.35
2023-04-01T15:40:52.390Z,12.32
2023-04-01T15:43:55.140Z,12.28
2023-04-01T15:47:00.036Z,12.30
2023-04-01T15:50:35.632Z,12.32
2023-04-01T15:53:57.173Z,12.30
2023-04-01T15:57:22.517Z,12.26
2023-04-01T16:00:29.351Z,12.14
2023-04-01T16:03:40.114Z,12.25
2023-04-01T16:07:05.515Z,12.08
2023-04-01T16:10:21.252Z,12.07
2023-04-01T16:13:40.129Z,12.04
2023-04-01T16:17:14.546Z,12.02
2023-04-01T16:20:22.352Z,12.04
2023-04-01T16:23:33.356Z,12.01
2023-04-01T16:26:41.334Z,11.99
2023-04-01T16:29:51.156Z,11.93
2023-04-01T16:33:00.126Z,11.84
2023-04-01T16:36:12.305Z,11.89
2023-04-01T16:39:29.427Z,11.92
2023-04-01T16:42:45.138Z,11.86
2023-04-01T16:45:57.363Z,11.78
2023-04-01T16:49:02.904Z,11.74
2023-04-01T16:52:17.222Z,11.88
2023-04-01T16:55:22.883Z,11.85
2023-04-01T16:58:29.600Z,11.80
2023-04-01T17:01:43.191Z,11.67
2023-04-01T17:04:49.669Z,11.65
2023-04-01T17:08:08.277Z,11.78
2023-04-01T17:11:19.816Z,11.77
2023-04-01T17:14:30.188Z,11.88
2023-04-01T17:17:40.805Z,11.97
2023-04-01T17:20:48.342Z,11.98
2023-04-01T17:23:55.083Z,11.89
2023-04-01T17:27:05.158Z,11.86
2023-04-01T17:30:35.083Z,11.89
2023-04-01T17:33:57.944Z,11.82
2023-04-01T17:37:14.105Z,11.82
2023-04-01T17:40:28.460Z,11.91
2023-04-01T17:43:45.660Z,11.80
2023-04-01T17:47:19.612Z,11.77
2023-04-01T17:50:38.320Z,11.68
2023-04-01T17:53:49.849Z,11.66
2023-04-01T17:57:21.555Z,11.68
2023-04-01T18:00:32.403Z,11.60
2023-04-01T18:04:04.939Z,11.41
2023-04-01T18:07:44.919Z,11.39
2023-04-01T18:11:11.026Z,11.31
2023-04-01T18:14:51.236Z,11.31
2023-04-01T18:18:07.849Z,11.22
2023-04-01T18:21:20.994Z,11.17
2023-04-01T18:24:28.763Z,11.03
2023-04-01T18:27:35.059Z,11.01
2023-04-01T18:30:38.596Z,10.98
2023-04-01T18:33:51.033Z,11.05
2023-04-01T18:36:58.657Z,11.02
2023-04-01T18:40:13.849Z,10.97
2023-04-01T18:43:26.394Z,10.99
2023-04-01T18:46:37.196Z,10.91
2023-04-01T18:49:48.148Z,10.97
2023-04-01T18:52:59.502Z,10.85
2023-04-01T18:56:04.831Z,10.96
2023-04-01T18:59:13.960Z,10.79
2023-04-01T19:02:28.770Z,10.79
2023-04-01T19:05:34.740Z,10.76
2023-04-01T19:08:42.738Z,10.80
2023-04-01T19:11:56.485Z,10.71
2023-04-01T19:15:19.078Z,10.63
2023-04-01T19:18:38.043Z,10.62
2023-04-01T19:21:47.743Z,10.61
2023-04-01T19:25:13.407Z,10.66
2023-04-01T19:28:33.220Z,10.59
2023-04-01T19:31:50.888Z,10.59
2023-04-01T19:35:05.584Z,10.59
2023-04-01T19:38:17.054Z,10.54
2023-04-01T19:41:34.610Z,10.44
2023-04-01T19:44:49.319Z,10.38
2023-04-01T19:48:03.647Z,10.27
2023-04-01T19:51:12.618Z,10.24
2023-04-01T19:54:28.131Z,10.21
2023-04-01T19:57:42.862Z,10.20
2023-04-01T20:00:49.556Z,10.30
2023-04-01T20:03:57.839Z,10.34
2023-04-01T20:07:09.199Z,10.27
2023-04-01T20:10:17.697Z,10.31
2023-04-01T20:13:30.723Z,10.36
2023-04-01T20:17:02.037Z,10.38
2023-04-01T20:20:21.148Z,10.40
2023-04-01T20:23:36.739Z,10.45
2023-04-01T20:26:43.671Z,10.56
2023-04-01T20:30:03.274Z,10.63
2023-04-01T20:33:20.092Z,10.59
2023-04-01T20:36:29.561Z,10.56
2023-04-01T20:39:59.453Z,10.62
2023-04-01T20:43:26.872Z,10.59
2023-04-01T20:46:37.279Z,10.59
2023-04-01T20:49:47.354Z,10.65
2023-04-01T20:52:59.349Z,10.62
2023-04-01T20:56:19.554Z,10.59
2023-04-01T20:59:35.145Z,10.57
2023-04-01T21:02:55.001Z,10.53
2023-04-01T21:06:12.981Z,10.61
2023-04-01T21:09:37.411Z,10.53
2023-04-01T21:12:50.152Z,10.51
2023-04-01T21:16:04.889Z,10.51
2023-04-01T21:19:26.620Z,10.61
2023-04-01T21:22:38.778Z,10.57
2023-04-01T21:26:04.240Z,10.62
2023-04-01T21:29:39.714Z,10.62
2023-04-01T21:32:59.003Z,10.61
2023-04-01T21:36:11.693Z,10.63
2023-04-01T21:39:44.529Z,10.67
2023-04-01T21:42:55.342Z,10.67
2023-04-01T21:46:21.466Z,10.65
2023-04-01T21:49:51.948Z,10.67
2023-04-01T21:53:20.141Z,10.60
2023-04-01T21:56:54.784Z,10.59
2023-04-01T22:00:17.232Z,10.50
2023-04-01T22:03:50.537Z,10.39
2023-04-01T22:07:03.759Z,10.33
2023-04-01T22:10:21.083Z,10.31
2023-04-01T22:13:30.429Z,10.31
2023-04-01T22:16:40.727Z,10.23
2023-04-01T22:19:53.956Z,10.24
2023-04-01T22:23:12.505Z,10.21
2023-04-01T22:26:24.763Z,10.22
2023-04-01T22:29:33.932Z,10.24
2023-04-01T22:32:43.036Z,10.25
2023-04-01T22:35:53.830Z,10.23
2023-04-01T22:39:11.138Z,10.25
2023-04-01T22:42:30.792Z,10.27
2023-04-01T22:46:00.501Z,10.33
2023-04-01T22:49:10.719Z,10.42
2023-04-01T22:52:21.168Z,10.40
2023-04-01T22:55:27.208Z,10.43
2023-04-01T22:58:36.552Z,10.36
2023-04-01T23:01:46.889Z,10.42
2023-04-01T23:04:55.974Z,10.41
2023-04-01T23:08:09.442Z,10.56
2023-04-01T23:11:18.222Z,10.48
2023-04-01T23:14:41.697Z,10.39
2023-04-01T23:18:13.796Z,10.32
2023-04-01T23:21:21.766Z,10.39
2023-04-01T23:24:32.628Z,10.49
2023-04-01T23:27:41.394Z,10.40
2023-04-01T23:30:52.884Z,10.40
2023-04-01T23:33:56.726Z,10.36
2023-04-01T23:37:03.873Z,10.33
2023-04-01T23:40:15.580Z,10.34
2023-04-01T23:43:26.664Z,10.33
2023-04-01T23:46:32.390Z,10.35
2023-04-01T23:49:40.871Z,10.32
2023-04-01T23:52:47.945Z,10.37
2023-04-01T23:55:50.788Z,10.28
2023-04-01T23:58:57.791Z,10.23
